Time;durP1;ratioP1;P1;durP2;ratioP2;P2;SDS_P1;SDS_P2;PMS_P1;PMS_P2;Temp;Humidity;BMP_temperature;BMP_pressure;BME280_temperature;BME280_humidity;BME280_pressure;Samples;Min_cycle;Max_cycle;Signal;HPM_P1;HPM_P2
2023/01/02 00:00:57;;;;;;;0.40;0.40;;;;;;;6.61;97.54;100009.63;5065260;28;20378;-69
2023/01/02 00:03:23;;;;;;;0.50;0.50;;;;;;;6.56;97.61;100001.88;5065393;28;20100;-71
2023/01/02 00:05:48;;;;;;;0.40;0.40;;;;;;;6.59;97.29;100001.00;5065326;28;20016;-71
2023/01/02 00:08:15;;;;;;;0.50;0.50;;;;;;;6.58;97.02;99999.28;5064880;28;20040;-69
2023/01/02 00:10:41;;;;;;;0.65;0.63;;;;;;;6.57;97.09;99992.41;5065199;28;20340;-69
2023/01/02 00:13:06;;;;;;;17.90;2.55;;;;;;;6.58;97.22;99991.56;5064901;28;20036;-70
2023/01/02 00:15:32;;;;;;;0.40;0.40;;;;;;;6.60;96.71;100002.72;5065049;28;20384;-69
2023/01/02 00:17:57;;;;;;;7.28;4.47;;;;;;;6.54;96.62;99998.41;5064744;28;20025;-69
2023/01/02 00:20:23;;;;;;;0.40;0.40;;;;;;;6.54;96.02;99995.84;5064983;28;20056;-68
2023/01/02 00:22:48;;;;;;;1.88;1.77;;;;;;;6.62;96.51;100010.47;5064527;28;20029;-69
2023/01/02 00:25:14;;;;;;;0.40;0.40;;;;;;;6.62;96.39;100010.47;5064896;28;20076;-69
2023/01/02 00:27:39;;;;;;;6.80;3.65;;;;;;;6.62;96.44;100008.75;5064792;28;20104;-72
2023/01/02 00:30:05;;;;;;;0.70;0.70;;;;;;;6.64;96.64;100009.63;5063940;28;20025;-72
2023/01/02 00:32:31;;;;;;;2.65;2.15;;;;;;;6.60;96.70;100005.28;5064607;28;20013;-73
2023/01/02 00:34:56;;;;;;;0.40;0.40;;;;;;;6.55;96.59;99996.72;5064705;28;20085;-72
2023/01/02 00:37:21;;;;;;;0.40;0.40;;;;;;;6.51;96.80;100002.69;5063181;28;20107;-72
2023/01/02 00:39:47;;;;;;;0.40;0.40;;;;;;;6.49;96.73;100007.00;5064348;28;20035;-71
2023/01/02 00:42:12;;;;;;;6.43;3.80;;;;;;;6.44;96.92;100006.97;5064435;28;20051;-70
2023/01/02 00:44:38;;;;;;;0.50;0.50;;;;;;;6.46;97.46;100007.84;5064449;28;20162;-71
2023/01/02 00:47:03;;;;;;;1.08;1.08;;;;;;;6.42;97.54;99999.25;5064497;28;20025;-70
2023/01/02 00:49:28;;;;;;;0.50;0.50;;;;;;;6.48;97.57;100001.00;5064260;28;20052;-72
2023/01/02 00:51:54;;;;;;;0.40;0.40;;;;;;;6.45;97.81;99993.25;5064070;28;20025;-72
2023/01/02 00:54:19;;;;;;;0.60;0.60;;;;;;;6.47;97.74;99998.41;5064392;28;20021;-73
2023/01/02 00:56:44;;;;;;;0.50;0.50;;;;;;;6.46;97.66;100000.13;5064401;28;20381;-72
2023/01/02 00:59:10;;;;;;;0.50;0.50;;;;;;;6.52;97.67;99999.25;5064259;28;20045;-73
2023/01/02 01:01:35;;;;;;;0.43;0.43;;;;;;;6.50;97.68;99993.25;5064325;28;20028;-73
2023/01/02 01:04:01;;;;;;;0.40;0.40;;;;;;;6.49;97.71;99989.81;5064172;28;20036;-74
2023/01/02 01:06:26;;;;;;;0.43;0.43;;;;;;;6.52;97.50;99986.34;5063793;28;20044;-74
2023/01/02 01:08:51;;;;;;;0.47;0.47;;;;;;;6.49;97.73;99981.19;5064165;28;20013;-73
2023/01/02 01:11:17;;;;;;;0.50;0.50;;;;;;;6.55;97.69;99988.97;5064162;28;20025;-73
2023/01/02 01:13:44;;;;;;;1.35;1.35;;;;;;;6.56;97.54;99993.25;5064029;28;20024;-73
2023/01/02 01:16:13;;;;;;;1.02;1.02;;;;;;;6.56;97.63;99985.53;5062688;28;20032;-74
2023/01/02 01:18:39;;;;;;;0.60;0.60;;;;;;;6.59;97.17;99985.53;5063887;28;20657;-73
2023/01/02 01:21:13;;;;;;;0.40;0.40;;;;;;;6.57;97.47;99979.50;5063865;28;20088;-73
2023/01/02 01:23:39;;;;;;;0.40;0.40;;;;;;;6.64;97.27;99988.13;5063765;28;20051;-73
2023/01/02 01:26:07;;;;;;;0.40;0.40;;;;;;;6.68;96.85;99971.75;5064049;28;20033;-73
2023/01/02 01:28:33;;;;;;;0.40;0.40;;;;;;;6.72;97.16;99965.78;5064003;28;20017;-72
2023/01/02 01:31:04;;;;;;;0.50;0.50;;;;;;;6.70;97.17;99964.91;5064057;28;20032;-72
2023/01/02 01:33:30;;;;;;;0.60;0.60;;;;;;;6.69;97.05;99971.75;5063841;28;20029;-72
2023/01/02 01:36:07;;;;;;;0.50;0.50;;;;;;;6.72;96.84;99962.31;5064005;28;20025;-72
2023/01/02 01:38:33;;;;;;;0.43;0.43;;;;;;;6.73;97.13;99964.03;5063711;28;20029;-72
2023/01/02 01:40:59;;;;;;;0.47;0.47;;;;;;;6.73;96.35;99964.03;5065422;28;20029;-72
2023/01/02 01:43:43;;;;;;;0.40;0.40;;;;;;;6.71;96.99;99960.59;5067818;28;20028;-73
2023/01/02 01:46:24;;;;;;;0.43;0.43;;;;;;;6.72;96.36;99967.47;5067682;28;20080;-73
2023/01/02 01:48:56;;;;;;;0.40;0.40;;;;;;;6.71;96.55;99951.13;5067420;28;20032;-69
2023/01/02 01:51:23;;;;;;;0.47;0.47;;;;;;;6.79;96.52;99962.31;5067489;28;20052;-71
2023/01/02 01:53:56;;;;;;;0.40;0.40;;;;;;;6.82;96.87;99962.31;5067308;28;20060;-73
2023/01/02 01:56:22;;;;;;;0.40;0.40;;;;;;;6.88;96.96;99966.63;5067578;28;20024;-70
2023/01/02 01:58:47;;;;;;;0.60;0.60;;;;;;;6.90;96.96;99966.63;5067546;28;20032;-72
2023/01/02 02:01:16;;;;;;;0.50;0.50;;;;;;;6.92;96.93;99968.34;5067482;28;20032;-73
2023/01/02 02:03:44;;;;;;;4.45;4.15;;;;;;;6.91;97.10;99973.50;5065942;28;20021;-72
2023/01/02 02:06:10;;;;;;;2.38;2.28;;;;;;;6.93;97.14;99974.38;5067646;28;20047;-72
2023/01/02 02:08:46;;;;;;;1.15;1.15;;;;;;;6.98;96.82;99982.09;5066919;28;20465;-70
2023/01/02 02:11:13;;;;;;;0.50;0.50;;;;;;;6.93;96.88;99975.22;5066882;28;20025;-73
2023/01/02 02:13:39;;;;;;;0.50;0.50;;;;;;;6.94;96.62;99979.53;5066986;28;20086;-71
2023/01/02 02:16:11;;;;;;;0.88;0.88;;;;;;;6.91;96.65;99983.81;5067044;28;20024;-71
2023/01/02 02:18:58;;;;;;;2.35;2.15;;;;;;;6.93;96.52;99975.22;5066928;28;20032;-70
2023/01/02 02:21:54;;;;;;;0.43;0.43;;;;;;;6.91;96.55;99976.94;5066948;28;20055;-71
2023/01/02 02:24:40;;;;;;;0.50;0.50;;;;;;;6.92;96.62;99976.09;5066861;28;20029;-70
2023/01/02 02:27:24;;;;;;;0.50;0.50;;;;;;;6.90;96.80;99975.22;5066900;28;20025;-72
2023/01/02 02:30:13;;;;;;;0.50;0.50;;;;;;;6.89;96.66;99973.50;5066900;28;20017;-72
2023/01/02 02:33:03;;;;;;;0.40;0.40;;;;;;;6.86;96.53;99962.31;5066768;28;20021;-72
2023/01/02 02:35:56;;;;;;;0.43;0.43;;;;;;;6.91;96.47;99965.75;5066831;28;20021;-71
2023/01/02 02:38:53;;;;;;;0.40;0.40;;;;;;;6.93;96.97;99967.47;5066596;28;20029;-69
2023/01/02 02:41:33;;;;;;;0.40;0.40;;;;;;;6.88;97.05;99958.88;5066808;28;20031;-71
2023/01/02 02:44:35;;;;;;;0.40;0.40;;;;;;;6.94;97.19;99968.34;5066547;28;20438;-71
2023/01/02 02:47:12;;;;;;;0.43;0.43;;;;;;;6.94;97.47;99964.03;5066468;28;20021;-70
2023/01/02 02:49:40;;;;;;;0.47;0.47;;;;;;;6.98;97.08;99975.22;5066309;28;20049;-72
2023/01/02 02:52:08;;;;;;;0.50;0.50;;;;;;;6.98;97.05;99964.88;5065239;28;20477;-71
2023/01/02 02:54:47;;;;;;;9.43;4.57;;;;;;;6.99;97.30;99960.59;5065151;28;20096;-71
2023/01/02 02:57:14;;;;;;;0.40;0.40;;;;;;;6.95;97.11;99964.88;5066161;28;20031;-70
2023/01/02 02:59:40;;;;;;;1.27;1.27;;;;;;;6.92;97.41;99960.59;5066294;28;20025;-72
2023/01/02 03:02:06;;;;;;;0.98;0.98;;;;;;;6.94;97.30;99966.63;5066361;28;20092;-71
2023/01/02 03:04:32;;;;;;;0.40;0.40;;;;;;;6.97;97.57;99954.56;5066159;28;20033;-73
2023/01/02 03:07:25;;;;;;;2.28;2.17;;;;;;;6.98;97.51;99956.31;5066061;28;20473;-72
2023/01/02 03:10:03;;;;;;;6.22;5.25;;;;;;;6.93;97.65;99961.47;5066229;28;20028;-71
2023/01/02 03:12:49;;;;;;;1.48;1.45;;;;;;;6.94;97.51;99961.47;5066251;28;20031;-70
2023/01/02 03:15:20;;;;;;;0.40;0.40;;;;;;;6.96;97.74;99968.34;5066166;28;20029;-70
2023/01/02 03:17:58;;;;;;;0.40;0.40;;;;;;;6.96;98.01;99960.59;5066089;28;20067;-70
2023/01/02 03:20:27;;;;;;;0.47;0.47;;;;;;;6.93;97.89;99964.88;5066226;28;20028;-71
2023/01/02 03:22:59;;;;;;;3.13;2.92;;;;;;;6.94;97.81;99955.44;5065902;28;20021;-70
2023/01/02 03:25:25;;;;;;;;;;;;;;;7.03;97.85;99958.00;5066723;28;20017;-71
2023/01/02 03:27:51;;;;;;;0.40;0.40;;;;;;;6.93;97.88;99953.72;5065574;28;19909;-71
2023/01/02 03:30:21;;;;;;;0.40;0.40;;;;;;;6.89;98.09;99950.28;5065885;28;20016;-70
2023/01/02 03:32:53;;;;;;;0.50;0.50;;;;;;;6.91;97.76;99955.44;5065537;28;20044;-70
2023/01/02 03:35:25;;;;;;;0.40;0.40;;;;;;;6.90;97.80;99951.97;5065735;28;20025;-70
2023/01/02 03:37:55;;;;;;;0.50;0.50;;;;;;;6.89;98.17;99960.59;5065436;28;20048;-71
2023/01/02 03:40:27;;;;;;;0.40;0.40;;;;;;;6.86;97.80;99968.34;5065798;28;20020;-71
2023/01/02 03:43:04;;;;;;;0.50;0.50;;;;;;;6.89;97.90;99964.88;5065482;28;20055;-69
2023/01/02 03:45:34;;;;;;;1.77;1.67;;;;;;;6.90;98.22;99964.88;5065659;28;20480;-71
2023/01/02 03:48:05;;;;;;;0.47;0.47;;;;;;;6.92;98.45;99957.16;5065588;28;20021;-71
2023/01/02 03:50:35;;;;;;;0.50;0.50;;;;;;;6.89;98.54;99959.72;5065283;28;20049;-71
2023/01/02 03:53:02;;;;;;;0.50;0.50;;;;;;;6.91;98.58;99953.72;5065136;28;20029;-69
2023/01/02 03:55:33;;;;;;;0.50;0.50;;;;;;;6.87;98.44;99944.25;5065444;28;20066;-71
2023/01/02 03:58:01;;;;;;;0.40;0.40;;;;;;;6.93;98.54;99948.56;5065323;28;20028;-71
2023/01/02 04:00:35;;;;;;;0.40;0.40;;;;;;;6.95;98.58;99941.66;5065397;28;20025;-71
2023/01/02 04:03:21;;;;;;;0.52;0.52;;;;;;;6.93;98.66;99941.66;5065076;28;20040;-70
2023/01/02 04:05:54;;;;;;;0.50;0.50;;;;;;;6.94;98.61;99943.41;5065501;28;20060;-69
2023/01/02 04:08:43;;;;;;;0.40;0.40;;;;;;;6.92;98.66;99939.09;5064924;28;20024;-71
2023/01/02 04:11:08;;;;;;;0.50;0.50;;;;;;;6.94;99.31;99940.81;5065005;28;20021;-71
2023/01/02 04:13:40;;;;;;;0.60;0.60;;;;;;;6.95;99.04;99941.66;5065234;28;20397;-71
2023/01/02 04:16:13;;;;;;;0.60;0.60;;;;;;;6.99;98.98;99933.06;5065265;28;20020;-70
2023/01/02 04:18:44;;;;;;;0.50;0.50;;;;;;;6.96;99.17;99939.94;5065333;28;20089;-71
2023/01/02 04:21:14;;;;;;;0.52;0.52;;;;;;;6.95;98.91;99941.66;5065072;28;20336;-71
2023/01/02 04:23:45;;;;;;;0.50;0.50;;;;;;;7.02;98.55;99938.22;5065040;28;20021;-71
2023/01/02 04:26:16;;;;;;;0.70;0.70;;;;;;;6.93;99.16;99928.75;5069271;28;20025;-72
2023/01/02 04:28:42;;;;;;;0.50;0.50;;;;;;;6.91;99.18;99933.06;5064908;28;20017;-72
2023/01/02 04:31:19;;;;;;;0.50;0.50;;;;;;;6.95;99.05;99933.91;5064817;28;20578;-71
2023/01/02 04:33:50;;;;;;;0.65;0.65;;;;;;;6.91;98.90;99927.91;5064840;28;20024;-72
2023/01/02 04:36:16;;;;;;;3.33;2.58;;;;;;;6.94;99.01;99932.22;5064809;28;20021;-72
2023/01/02 04:38:43;;;;;;;0.60;0.60;;;;;;;6.96;99.15;99925.34;5046417;28;20029;-71
2023/01/02 04:41:10;;;;;;;0.50;0.50;;;;;;;6.94;99.34;99927.91;5064481;28;20028;-71
2023/01/02 04:43:35;;;;;;;0.50;0.50;;;;;;;6.85;99.51;99915.03;5064484;28;20025;-72
2023/01/02 04:46:00;;;;;;;0.50;0.50;;;;;;;6.97;99.20;99927.03;5064735;28;20052;-72
2023/01/02 04:48:26;;;;;;;0.40;0.40;;;;;;;6.98;99.33;99926.16;5064498;28;20082;-73
2023/01/02 04:50:53;;;;;;;0.50;0.50;;;;;;;6.97;99.25;99924.47;5064146;28;20056;-71
2023/01/02 04:53:19;;;;;;;0.88;0.88;;;;;;;6.96;98.97;99932.19;5062592;28;20029;-72
2023/01/02 04:55:44;;;;;;;0.40;0.40;;;;;;;6.93;99.29;99939.06;5064279;28;20027;-71
2023/01/02 04:58:10;;;;;;;0.40;0.40;;;;;;;6.90;99.56;99928.75;5064190;28;20052;-72
2023/01/02 05:00:35;;;;;;;0.40;0.40;;;;;;;6.84;99.15;99936.50;5064281;28;20021;-72
2023/01/02 05:03:01;;;;;;;0.40;0.40;;;;;;;6.82;98.98;99935.66;5064005;28;20032;-72
2023/01/02 05:05:27;;;;;;;0.50;0.50;;;;;;;6.72;99.12;99924.50;5064325;28;20025;-72
2023/01/02 05:07:52;;;;;;;5.75;2.88;;;;;;;6.65;98.63;99913.31;5064038;28;20029;-72
2023/01/02 05:10:18;;;;;;;0.50;0.50;;;;;;;6.75;98.60;99926.19;5064222;28;20029;-71
2023/01/02 05:12:43;;;;;;;0.50;0.50;;;;;;;6.73;98.83;99926.19;5063958;28;20021;-71
2023/01/02 05:15:09;;;;;;;0.50;0.50;;;;;;;6.68;98.72;99922.75;5063524;28;20025;-72
2023/01/02 05:17:36;;;;;;;0.40;0.40;;;;;;;6.67;98.96;99927.06;5062603;28;20029;-72
2023/01/02 05:20:03;;;;;;;0.50;0.50;;;;;;;6.64;99.09;99911.59;5064076;28;20032;-72
2023/01/02 05:25:13;;;;;;;0.82;0.82;;;;;;;6.53;98.58;99921.88;5064333;28;20032;-72
2023/01/02 05:27:39;;;;;;;0.50;0.50;;;;;;;6.45;98.79;99924.47;5063972;28;20024;-72
2023/01/02 05:30:06;;;;;;;0.50;0.50;;;;;;;6.42;98.81;99924.47;5064147;28;20120;-72
2023/01/02 05:32:32;;;;;;;0.80;0.80;;;;;;;6.39;99.13;99915.88;5063725;28;20025;-72
2023/01/02 05:34:57;;;;;;;0.50;0.50;;;;;;;6.41;99.48;99916.72;5064054;28;20036;-72
2023/01/02 05:37:23;;;;;;;0.60;0.60;;;;;;;6.36;99.56;99915.88;5063762;28;20111;-72
2023/01/02 05:39:48;;;;;;;0.60;0.60;;;;;;;6.34;99.70;99902.13;5063807;28;20028;-71
2023/01/02 05:42:13;;;;;;;0.50;0.50;;;;;;;6.35;99.60;99898.69;5062424;28;20043;-71
2023/01/02 05:44:39;;;;;;;2.45;2.35;;;;;;;6.38;99.72;99888.38;5062351;28;20047;-71
2023/01/02 05:47:04;;;;;;;0.50;0.50;;;;;;;6.34;99.62;99879.78;5063880;28;20041;-70
2023/01/02 05:49:30;;;;;;;0.40;0.40;;;;;;;6.31;99.80;99887.53;5063533;28;20048;-70
2023/01/02 05:51:55;;;;;;;0.40;0.40;;;;;;;6.31;99.87;99880.63;5063596;28;20087;-69
2023/01/02 05:54:20;;;;;;;0.50;0.50;;;;;;;6.33;99.93;99883.22;5063821;28;20017;-70
2023/01/02 05:56:46;;;;;;;0.50;0.50;;;;;;;6.33;100.00;99888.38;5063813;28;20021;-70
2023/01/02 05:59:15;;;;;;;0.50;0.50;;;;;;;6.34;100.00;99884.94;5063494;28;20032;-70
2023/01/02 06:01:40;;;;;;;0.47;0.47;;;;;;;6.34;100.00;99887.53;5063484;28;20021;-70
2023/01/02 06:04:06;;;;;;;0.50;0.50;;;;;;;6.38;100.00;99884.06;5063717;28;20031;-70
2023/01/02 06:06:34;;;;;;;0.50;0.50;;;;;;;6.36;100.00;99880.63;5063854;28;20025;-70
2023/01/02 06:09:00;;;;;;;0.50;0.50;;;;;;;6.43;100.00;99894.38;5063477;28;20052;-70
2023/01/02 06:11:27;;;;;;;0.45;0.45;;;;;;;6.42;100.00;99890.09;5063419;28;20029;-70
2023/01/02 06:13:53;;;;;;;0.40;0.40;;;;;;;6.40;100.00;99884.94;5063783;28;20035;-71
2023/01/02 06:16:18;;;;;;;0.40;0.40;;;;;;;6.51;100.00;99889.22;5063500;28;20021;-70
2023/01/02 06:18:44;;;;;;;0.47;0.47;;;;;;;6.53;100.00;99882.38;5063397;28;20025;-71
2023/01/02 06:21:12;;;;;;;0.50;0.50;;;;;;;6.47;100.00;99870.31;5063359;28;20081;-70
2023/01/02 06:23:38;;;;;;;0.50;0.50;;;;;;;6.54;100.00;99878.91;5063072;28;20035;-71
2023/01/02 06:26:07;;;;;;;0.63;0.63;;;;;;;6.54;100.00;99890.09;5063436;28;20029;-71
2023/01/02 06:28:32;;;;;;;0.50;0.50;;;;;;;6.56;100.00;99888.38;5065664;28;20025;-70
2023/01/02 06:31:00;;;;;;;0.50;0.50;;;;;;;6.61;100.00;99882.34;5066773;28;20505;-71
2023/01/02 06:33:26;;;;;;;0.40;0.40;;;;;;;6.52;100.00;99862.56;5067010;28;20047;-70
2023/01/02 06:36:04;;;;;;;0.50;0.50;;;;;;;6.64;100.00;99875.47;5065795;28;20457;-70
2023/01/02 06:38:29;;;;;;;0.50;0.50;;;;;;;6.64;100.00;99878.06;5066575;28;20059;-70
2023/01/02 06:40:57;;;;;;;0.50;0.50;;;;;;;6.63;100.00;99878.06;5066852;28;20024;-70
2023/01/02 06:43:23;;;;;;;1.08;1.08;;;;;;;6.62;100.00;99882.34;5066788;28;20017;-70
2023/01/02 06:45:49;;;;;;;0.50;0.50;;;;;;;6.60;100.00;99884.06;5066825;28;20036;-69
2023/01/02 06:48:15;;;;;;;0.50;0.50;;;;;;;6.61;100.00;99885.81;5066581;28;20017;-69
2023/01/02 06:50:41;;;;;;;0.50;0.50;;;;;;;6.64;100.00;99877.19;5066271;28;20049;-69
2023/01/02 06:53:07;;;;;;;0.50;0.50;;;;;;;6.58;100.00;99893.53;5066229;28;20024;-68
2023/01/02 06:55:32;;;;;;;1.13;1.13;;;;;;;6.62;100.00;99889.22;5066451;28;20084;-68
2023/01/02 06:57:57;;;;;;;0.77;0.77;;;;;;;6.55;100.00;99891.81;5066243;28;20025;-68
2023/01/02 07:00:23;;;;;;;0.50;0.50;;;;;;;6.54;100.00;99884.94;5066420;28;20040;-68
2023/01/02 07:02:48;;;;;;;1.83;1.73;;;;;;;6.53;100.00;99875.47;5066206;28;20017;-68
2023/01/02 07:05:14;;;;;;;0.50;0.50;;;;;;;6.49;100.00;99878.91;5066400;28;20021;-68
2023/01/02 07:07:39;;;;;;;0.40;0.40;;;;;;;6.48;100.00;99882.38;5065997;28;20029;-68
2023/01/02 07:10:05;;;;;;;0.50;0.50;;;;;;;6.50;100.00;99888.38;5066366;28;20025;-68
2023/01/02 07:12:34;;;;;;;0.50;0.50;;;;;;;6.42;100.00;99888.38;5066191;28;20029;-68
2023/01/02 07:14:59;;;;;;;0.45;0.45;;;;;;;6.44;100.00;99881.50;5066189;28;20021;-67
2023/01/02 07:17:25;;;;;;;0.50;0.50;;;;;;;6.36;100.00;99877.22;5065958;28;20074;-68
2023/01/02 07:19:50;;;;;;;0.50;0.50;;;;;;;6.37;100.00;99897.84;5065866;28;20059;-68
2023/01/02 07:22:15;;;;;;;0.50;0.50;;;;;;;6.37;100.00;99890.09;5066023;28;20025;-71
2023/01/02 07:24:41;;;;;;;0.50;0.50;;;;;;;6.40;99.97;99882.38;5064225;28;20032;-66
2023/01/02 07:27:06;;;;;;;6.65;5.07;;;;;;;6.33;99.89;99883.22;5065757;28;20017;-67
2023/01/02 07:29:31;;;;;;;0.50;0.50;;;;;;;6.31;99.96;99888.38;5065880;28;20469;-68
2023/01/02 07:31:57;;;;;;;0.50;0.50;;;;;;;6.28;99.57;99887.50;5066024;28;20017;-66
2023/01/02 07:34:22;;;;;;;0.50;0.50;;;;;;;6.27;99.63;99886.66;5065966;28;20029;-68
2023/01/02 07:36:47;;;;;;;0.50;0.50;;;;;;;6.22;99.77;99879.75;5064361;28;20045;-66
2023/01/02 07:39:13;;;;;;;0.50;0.50;;;;;;;6.22;99.85;99872.88;5065282;28;20105;-66
2023/01/02 07:41:38;;;;;;;0.50;0.50;;;;;;;6.26;99.80;99866.03;5065182;28;20384;-67
2023/01/02 07:44:04;;;;;;;4.25;3.90;;;;;;;6.21;99.88;99866.03;5065637;28;20025;-68
2023/01/02 07:46:29;;;;;;;0.40;0.40;;;;;;;6.27;99.83;99854.84;5065613;28;20024;-67
2023/01/02 07:48:54;;;;;;;0.50;0.50;;;;;;;6.22;99.39;99860.00;5065371;28;20065;-67
2023/01/02 07:51:20;;;;;;;0.40;0.40;;;;;;;6.19;99.83;99853.13;5065050;28;20102;-67
2023/01/02 07:53:45;;;;;;;0.50;0.50;;;;;;;6.17;99.92;99849.69;5064777;28;20021;-67
2023/01/02 07:56:10;;;;;;;0.50;0.50;;;;;;;6.19;99.68;99850.56;5065865;28;20028;-68
2023/01/02 07:58:36;;;;;;;0.50;0.50;;;;;;;6.17;99.49;99841.97;5065383;28;20021;-67
2023/01/02 08:01:07;;;;;;;0.50;0.50;;;;;;;6.17;99.52;99844.53;5065224;28;20204;-66
2023/01/02 08:03:32;;;;;;;0.50;0.50;;;;;;;6.17;99.27;99862.56;5065212;28;20060;-66
2023/01/02 08:06:24;;;;;;;0.50;0.50;;;;;;;6.14;99.61;99859.13;5065934;28;20025;-67
2023/01/02 08:08:50;;;;;;;0.50;0.50;;;;;;;6.16;99.55;99855.72;5064156;28;20059;-67
2023/01/02 08:11:20;;;;;;;0.50;0.50;;;;;;;6.12;99.76;99877.16;5065145;28;20025;-65
2023/01/02 08:13:46;;;;;;;0.50;0.50;;;;;;;6.14;100.00;99875.47;5063843;28;20036;-66
2023/01/02 08:16:19;;;;;;;0.50;0.50;;;;;;;6.14;100.00;99857.41;5065572;28;20428;-67
2023/01/02 08:18:45;;;;;;;0.50;0.50;;;;;;;6.21;99.57;99873.75;5065148;28;20048;-67
2023/01/02 08:21:11;;;;;;;0.50;0.50;;;;;;;6.18;99.98;99872.03;5065519;28;20036;-68
2023/01/02 08:23:37;;;;;;;0.50;0.50;;;;;;;6.19;99.55;99867.72;5064564;28;20021;-67
2023/01/02 08:26:07;;;;;;;0.50;0.50;;;;;;;6.22;99.54;99861.72;5065248;28;20473;-67
2023/01/02 08:28:33;;;;;;;0.50;0.50;;;;;;;6.16;99.17;99857.41;5065292;28;20081;-67
2023/01/02 08:30:59;;;;;;;0.60;0.60;;;;;;;6.17;99.29;99854.84;5065270;28;20056;-67
2023/01/02 08:33:25;;;;;;;0.50;0.50;;;;;;;6.14;99.65;99853.97;5065087;28;20036;-66
2023/01/02 08:35:51;;;;;;;0.50;0.50;;;;;;;6.18;99.30;99841.09;5063674;28;20089;-66
2023/01/02 08:38:17;;;;;;;0.43;0.43;;;;;;;6.14;99.34;99836.81;5065208;28;20088;-66
2023/01/02 08:40:42;;;;;;;0.50;0.50;;;;;;;6.16;99.56;99858.28;5065323;28;20098;-66
2023/01/02 08:43:08;;;;;;;0.50;0.50;;;;;;;6.13;99.65;99860.00;5065256;28;20084;-67
2023/01/02 08:45:34;;;;;;;0.50;0.50;;;;;;;6.16;99.68;99870.31;5065263;28;20469;-66
2023/01/02 08:47:59;;;;;;;1.15;1.15;;;;;;;6.18;99.67;99866.88;5065184;28;20021;-66
2023/01/02 08:50:25;;;;;;;0.50;0.50;;;;;;;6.19;99.39;99860.88;5064118;28;20055;-66
2023/01/02 08:52:50;;;;;;;0.50;0.50;;;;;;;6.22;99.31;99866.88;5064865;28;20024;-67
2023/01/02 08:55:16;;;;;;;0.43;0.43;;;;;;;6.16;99.32;99868.59;5064663;28;20020;-66
2023/01/02 08:57:42;;;;;;;0.50;0.50;;;;;;;6.11;99.26;99853.97;5064921;28;20036;-67
2023/01/02 09:00:08;;;;;;;0.50;0.50;;;;;;;6.15;99.15;99851.41;5065187;28;20029;-67
2023/01/02 09:02:34;;;;;;;0.50;0.50;;;;;;;6.15;99.36;99863.44;5064915;28;20547;-66
2023/01/02 09:04:59;;;;;;;0.50;0.50;;;;;;;6.12;99.53;99872.00;5064850;28;20547;-65
2023/01/02 09:07:25;;;;;;;0.47;0.47;;;;;;;6.07;99.88;99879.75;5064685;28;20736;-66
2023/01/02 09:09:50;;;;;;;0.45;0.45;;;;;;;6.09;100.00;99877.16;5064822;28;20017;-67
2023/01/02 09:12:16;;;;;;;0.40;0.40;;;;;;;6.13;100.00;99893.50;5064531;28;20128;-66
2023/01/02 09:14:41;;;;;;;0.40;0.40;;;;;;;6.18;100.00;99896.97;5064559;28;20024;-66
2023/01/02 09:17:07;;;;;;;0.50;0.50;;;;;;;6.23;100.00;99900.38;5064504;28;20414;-66
2023/01/02 09:19:33;;;;;;;0.40;0.40;;;;;;;6.24;100.00;99893.50;5064857;28;20025;-66
2023/01/02 09:22:00;;;;;;;0.50;0.50;;;;;;;6.26;100.00;99895.22;5064428;28;20028;-65
2023/01/02 09:24:26;;;;;;;0.50;0.50;;;;;;;6.27;100.00;99888.34;5065141;28;20028;-67
2023/01/02 09:26:52;;;;;;;0.50;0.50;;;;;;;6.28;100.00;99885.78;5064751;28;20051;-66
2023/01/02 09:29:18;;;;;;;0.50;0.50;;;;;;;6.31;100.00;99874.63;5064381;28;20262;-66
2023/01/02 09:31:43;;;;;;;0.50;0.50;;;;;;;6.34;100.00;99858.28;5064651;28;20029;-65
2023/01/02 09:34:08;;;;;;;0.47;0.47;;;;;;;6.33;100.00;99860.00;5063546;28;20127;-65
2023/01/02 09:36:34;;;;;;;0.80;0.80;;;;;;;6.38;100.00;99871.19;5064841;28;20025;-65
2023/01/02 09:39:00;;;;;;;0.50;0.50;;;;;;;6.40;100.00;99878.91;5064536;28;20028;-66
2023/01/02 09:41:35;;;;;;;0.50;0.50;;;;;;;6.45;100.00;99880.63;5064717;28;20032;-64
2023/01/02 09:44:16;;;;;;;0.40;0.40;;;;;;;6.45;100.00;99879.78;5064265;28;20021;-65
2023/01/02 09:46:44;;;;;;;0.50;0.50;;;;;;;6.47;100.00;99874.63;5064501;28;20116;-65
2023/01/02 09:49:26;;;;;;;0.68;0.68;;;;;;;6.44;100.00;99865.16;5064359;28;20017;-65
2023/01/02 09:51:52;;;;;;;;;;;;;;;6.47;100.00;99860.00;5064843;28;20029;-65
2023/01/02 09:54:29;;;;;;;0.40;0.40;;;;;;;6.49;100.00;99865.16;5064445;28;19932;-66
2023/01/02 09:57:18;;;;;;;0.50;0.50;;;;;;;6.47;100.00;99872.06;5064296;28;20064;-65
2023/01/02 09:59:55;;;;;;;0.50;0.50;;;;;;;6.47;100.00;99872.06;5064314;28;20025;-65
2023/01/02 10:02:50;;;;;;;0.45;0.45;;;;;;;6.52;100.00;99867.72;5065337;28;20030;-64
2023/01/02 10:05:37;;;;;;;0.40;0.40;;;;;;;6.52;100.00;99881.50;5068227;28;20351;-64
2023/01/02 10:08:17;;;;;;;0.50;0.50;;;;;;;6.56;100.00;99878.06;5068186;28;20013;-64
2023/01/02 10:10:47;;;;;;;0.50;0.50;;;;;;;6.55;100.00;99860.03;5066886;28;20040;-65
2023/01/02 10:13:30;;;;;;;0.50;0.50;;;;;;;6.63;100.00;99858.28;5066800;28;20024;-65
2023/01/02 10:15:59;;;;;;;0.68;0.68;;;;;;;6.65;100.00;99850.53;5068310;28;20024;-65
2023/01/02 10:18:52;;;;;;;0.40;0.40;;;;;;;6.70;100.00;99848.81;5067961;28;20052;-65
2023/01/02 10:21:26;;;;;;;0.73;0.73;;;;;;;6.73;100.00;99843.66;5066915;28;20037;-65
2023/01/02 10:24:02;;;;;;;0.40;0.40;;;;;;;6.72;100.00;99839.34;5067484;28;20017;-64
2023/01/02 10:26:34;;;;;;;0.40;0.40;;;;;;;6.71;100.00;99835.03;5067852;28;20017;-65
2023/01/02 10:29:13;;;;;;;0.50;0.50;;;;;;;6.65;100.00;99841.06;5067628;28;20024;-64
2023/01/02 10:32:16;;;;;;;0.50;0.50;;;;;;;6.69;100.00;99835.03;5067646;28;20480;-65
2023/01/02 10:34:46;;;;;;;;;;;;;;;6.73;100.00;99827.28;5068009;28;20060;-65
2023/01/02 10:37:14;;;;;;;0.43;0.43;;;;;;;6.72;100.00;99826.47;5067042;28;20350;-65
2023/01/02 10:39:45;;;;;;;0.50;0.50;;;;;;;6.70;100.00;99807.53;5067500;28;20043;-65
2023/01/02 10:42:13;;;;;;;0.40;0.40;;;;;;;6.74;100.00;99810.97;5067392;28;20056;-64
2023/01/02 10:44:40;;;;;;;0.40;0.40;;;;;;;6.72;100.00;99816.13;5067370;28;20028;-64
2023/01/02 10:47:21;;;;;;;0.40;0.40;;;;;;;6.67;100.00;99808.41;5067728;28;20036;-65
2023/01/02 10:49:48;;;;;;;0.50;0.50;;;;;;;6.64;100.00;99813.56;5067190;28;20052;-65
2023/01/02 10:52:33;;;;;;;0.50;0.50;;;;;;;6.61;100.00;99805.84;5067001;28;20257;-65
2023/01/02 10:54:59;;;;;;;0.40;0.40;;;;;;;6.63;100.00;99804.09;5067143;28;20286;-65
2023/01/02 10:57:45;;;;;;;0.45;0.45;;;;;;;6.59;100.00;99801.53;5066989;28;20041;-65
2023/01/02 11:00:33;;;;;;;0.40;0.40;;;;;;;6.53;100.00;99799.84;5066952;28;20109;-63
2023/01/02 11:03:07;;;;;;;0.40;0.40;;;;;;;6.45;100.00;99798.09;5066724;28;20054;-64
2023/01/02 11:05:42;;;;;;;0.43;0.43;;;;;;;6.45;99.98;99781.81;5067358;28;20039;-64
2023/01/02 11:08:18;;;;;;;0.50;0.50;;;;;;;6.45;100.00;99777.47;5066861;28;20017;-63
2023/01/02 11:10:44;;;;;;;0.82;0.82;;;;;;;6.45;100.00;99776.63;5067000;28;20024;-64
2023/01/02 11:13:13;;;;;;;0.50;0.50;;;;;;;6.44;100.00;99770.63;5066240;28;20049;-63
2023/01/02 11:15:56;;;;;;;0.50;0.50;;;;;;;6.49;100.00;99767.16;5067098;28;20036;-63
2023/01/02 11:18:28;;;;;;;0.50;0.50;;;;;;;6.54;100.00;99775.75;5066544;28;20021;-62
2023/01/02 11:21:03;;;;;;;0.43;0.43;;;;;;;6.51;100.00;99786.94;5066888;28;20032;-64
2023/01/02 11:23:30;;;;;;;0.50;0.50;;;;;;;6.49;100.00;99792.94;5066135;28;20104;-64
2023/01/02 11:25:55;;;;;;;0.50;0.50;;;;;;;6.48;100.00;99804.13;5066842;28;20082;-63
2023/01/02 11:28:27;;;;;;;0.50;0.50;;;;;;;6.43;100.00;99804.13;5066371;28;20020;-65
2023/01/02 11:31:01;;;;;;;0.47;0.47;;;;;;;6.40;100.00;99797.28;5066816;28;20029;-64
2023/01/02 11:33:32;;;;;;;0.50;0.50;;;;;;;6.34;100.00;99788.69;5067040;28;20029;-64
2023/01/02 11:36:05;;;;;;;0.50;0.50;;;;;;;6.37;100.00;99797.28;5065149;28;20021;-65
2023/01/02 11:38:49;;;;;;;0.40;0.40;;;;;;;6.36;100.00;99787.81;5066179;28;20025;-64
2023/01/02 11:41:20;;;;;;;0.40;0.40;;;;;;;6.37;100.00;99784.38;5066427;28;20089;-64
2023/01/02 11:43:51;;;;;;;0.60;0.60;;;;;;;6.28;100.00;99781.78;5066030;28;20472;-64
2023/01/02 11:46:28;;;;;;;0.50;0.50;;;;;;;6.26;100.00;99780.97;5066250;28;20043;-64
2023/01/02 11:49:10;;;;;;;0.40;0.40;;;;;;;6.25;100.00;99774.06;5066347;28;20468;-64
2023/01/02 11:51:38;;;;;;;0.43;0.43;;;;;;;6.19;100.00;99773.22;5066369;28;20416;-64
2023/01/02 11:54:11;;;;;;;0.50;0.50;;;;;;;6.25;100.00;99776.66;5066018;28;20426;-64